createdAt,value
2022-11-25T00:01:40.071Z,13.73
2022-11-25T00:04:09.879Z,14.05
2022-11-25T00:06:38.554Z,12.85
2022-11-25T00:09:11.428Z,13.45
2022-11-25T00:11:41.629Z,14.80
2022-11-25T00:14:14.171Z,14.90
2022-11-25T00:16:46.750Z,19.60
2022-11-25T00:19:18.561Z,16.10
2022-11-25T00:21:47.018Z,17.40
2022-11-25T00:24:17.203Z,16.88
2022-11-25T00:26:45.436Z,16.38
2022-11-25T00:29:15.092Z,18.05
2022-11-25T00:31:43.756Z,18.40
2022-11-25T00:34:14.478Z,17.23
2022-11-25T00:36:44.368Z,17.08
2022-11-25T00:39:15.791Z,16.77
2022-11-25T00:42:16.790Z,16.15
2022-11-25T00:44:45.038Z,16.08
2022-11-25T00:47:15.252Z,17.40
2022-11-25T00:49:44.829Z,15.82
2022-11-25T00:52:16.781Z,16.45
2022-11-25T00:54:45.850Z,16.02
2022-11-25T00:57:14.568Z,15.75
2022-11-25T00:59:48.767Z,16.90
2022-11-25T01:02:18.536Z,20.80
2022-11-25T01:04:47.222Z,16.80
2022-11-25T01:07:18.051Z,17.98
2022-11-25T01:09:46.645Z,18.45
2022-11-25T01:12:14.925Z,17.88
2022-11-25T01:14:43.137Z,17.38
2022-11-25T01:17:11.406Z,16.73
2022-11-25T01:19:40.515Z,16.40
2022-11-25T01:22:09.056Z,15.65
2022-11-25T01:24:38.990Z,14.98
2022-11-25T01:27:07.357Z,15.00
2022-11-25T01:29:35.536Z,15.82
2022-11-25T01:32:04.216Z,16.17
2022-11-25T01:34:34.653Z,15.90
2022-11-25T01:37:03.216Z,14.82
2022-11-25T01:39:33.070Z,15.25
2022-11-25T01:42:03.403Z,14.63
2022-11-25T01:44:32.872Z,16.45
2022-11-25T01:47:05.993Z,14.35
2022-11-25T01:49:39.453Z,16.25
2022-11-25T01:52:16.921Z,15.13
2022-11-25T01:54:52.930Z,15.15
2022-11-25T01:57:27.577Z,14.85
2022-11-25T01:59:59.019Z,14.30
2022-11-25T02:02:27.552Z,13.75
2022-11-25T02:04:56.036Z,14.07
2022-11-25T02:07:32.059Z,14.73
2022-11-25T02:10:01.748Z,14.02
2022-11-25T02:12:32.346Z,13.48
2022-11-25T02:15:01.302Z,13.43
2022-11-25T02:17:29.676Z,13.60
2022-11-25T02:20:04.509Z,12.10
2022-11-25T02:22:43.175Z,12.27
2022-11-25T02:25:16.896Z,10.25
2022-11-25T02:27:48.920Z,10.60
2022-11-25T02:30:17.420Z,13.27
2022-11-25T02:32:46.298Z,11.90
2022-11-25T02:35:30.139Z,12.10
2022-11-25T02:38:03.255Z,11.93
2022-11-25T02:40:35.866Z,11.68
2022-11-25T02:43:04.125Z,12.18
2022-11-25T02:45:42.904Z,10.50
2022-11-25T02:48:11.314Z,10.20
2022-11-25T02:50:39.893Z,10.57
2022-11-25T02:53:08.219Z,11.23
2022-11-25T02:55:37.911Z,11.20
2022-11-25T02:58:06.274Z,11.10
2022-11-25T03:00:34.623Z,10.82
2022-11-25T03:03:03.138Z,12.48
2022-11-25T03:05:31.465Z,11.88
2022-11-25T03:08:00.758Z,10.80
2022-11-25T03:10:29.127Z,12.07
2022-11-25T03:12:59.005Z,11.32
2022-11-25T03:15:27.544Z,10.27
2022-11-25T03:17:55.809Z,11.20
2022-11-25T03:20:24.338Z,12.25
2022-11-25T03:22:52.690Z,11.40
2022-11-25T03:25:21.536Z,11.05
2022-11-25T03:27:49.782Z,9.80
2022-11-25T03:30:21.760Z,11.68
2022-11-25T03:32:50.385Z,10.25
2022-11-25T03:35:18.898Z,9.95
2022-11-25T03:37:47.354Z,10.00
2022-11-25T03:40:16.795Z,9.38
2022-11-25T03:42:45.151Z,8.90
2022-11-25T03:45:14.998Z,8.25
2022-11-25T03:47:45.628Z,8.45
2022-11-25T03:50:15.777Z,7.28
2022-11-25T03:52:44.335Z,8.07
2022-11-25T03:55:13.886Z,7.82
2022-11-25T03:57:42.620Z,7.82
2022-11-25T04:00:12.938Z,6.70
2022-11-25T04:02:41.354Z,7.70
2022-11-25T04:05:11.485Z,7.78
2022-11-25T04:07:39.857Z,7.53
2022-11-25T04:10:09.672Z,8.55
2022-11-25T04:12:49.185Z,8.57
2022-11-25T04:15:27.275Z,7.70
2022-11-25T04:17:56.137Z,8.20
2022-11-25T04:20:25.986Z,7.55
2022-11-25T04:22:56.015Z,7.88
2022-11-25T04:25:24.650Z,7.95
2022-11-25T04:27:56.330Z,7.95
2022-11-25T04:30:25.051Z,8.82
2022-11-25T04:32:53.471Z,7.47
2022-11-25T04:35:22.274Z,7.55
2022-11-25T04:37:52.009Z,7.80
2022-11-25T04:40:23.858Z,7.90
2022-11-25T04:43:04.657Z,8.65
2022-11-25T04:45:51.937Z,7.45
2022-11-25T04:48:25.093Z,8.35
2022-11-25T04:50:53.381Z,8.05
2022-11-25T04:53:23.117Z,8.75
2022-11-25T04:55:51.703Z,9.02
2022-11-25T04:58:40.047Z,10.13
2022-11-25T05:01:07.394Z,9.57
2022-11-25T05:03:36.119Z,9.15
2022-11-25T05:06:07.987Z,9.10
2022-11-25T05:08:38.028Z,9.20
2022-11-25T05:11:06.663Z,8.50
2022-11-25T05:13:35.035Z,9.00
2022-11-25T05:16:03.955Z,8.77
2022-11-25T05:18:32.175Z,9.07
2022-11-25T05:21:02.737Z,9.82
2022-11-25T05:23:31.489Z,10.07
2022-11-25T05:26:02.682Z,10.23
2022-11-25T05:28:34.226Z,10.10
2022-11-25T05:31:02.885Z,11.15
2022-11-25T05:33:31.526Z,11.57
2022-11-25T05:36:01.216Z,11.50
2022-11-25T05:38:29.862Z,13.40
2022-11-25T05:41:05.269Z,13.02
2022-11-25T05:43:34.014Z,13.95
2022-11-25T05:46:06.654Z,14.38
2022-11-25T05:48:34.961Z,11.88
2022-11-25T05:51:03.503Z,12.52
2022-11-25T05:53:32.232Z,12.50
2022-11-25T05:56:04.050Z,16.45
2022-11-25T05:58:36.951Z,14.30
2022-11-25T06:01:10.447Z,13.77
2022-11-25T06:03:39.423Z,12.15
2022-11-25T06:06:09.193Z,12.55
2022-11-25T06:08:38.653Z,12.88
2022-11-25T06:11:09.986Z,13.68
2022-11-25T06:13:38.170Z,14.77
2022-11-25T06:16:10.925Z,13.70
2022-11-25T06:18:39.504Z,13.88
2022-11-25T06:21:08.747Z,13.35
2022-11-25T06:23:38.289Z,15.10
2022-11-25T06:26:09.966Z,12.98
2022-11-25T06:28:38.303Z,13.98
2022-11-25T06:31:08.634Z,11.40
2022-11-25T06:33:38.275Z,12.70
2022-11-25T06:36:08.393Z,13.23
2022-11-25T06:38:36.697Z,11.65
2022-11-25T06:41:06.845Z,13.10
2022-11-25T06:43:36.978Z,12.07
2022-11-25T06:46:06.754Z,10.90
2022-11-25T06:48:35.499Z,14.70
2022-11-25T06:51:07.071Z,12.45
2022-11-25T06:53:36.546Z,12.02
2022-11-25T06:56:15.195Z,10.50
2022-11-25T06:58:46.520Z,11.32
2022-11-25T07:01:16.921Z,11.38
2022-11-25T07:03:47.663Z,9.00
2022-11-25T07:06:29.361Z,10.45
2022-11-25T07:08:58.581Z,9.52
2022-11-25T07:11:28.943Z,10.98
2022-11-25T07:14:00.376Z,11.95
2022-11-25T07:16:29.732Z,12.68
2022-11-25T07:19:02.149Z,12.93
2022-11-25T07:21:33.744Z,11.40
2022-11-25T07:24:03.991Z,11.27
2022-11-25T07:26:34.869Z,11.50
2022-11-25T07:29:23.332Z,11.57
2022-11-25T07:31:56.232Z,11.35
2022-11-25T07:34:24.712Z,10.85
2022-11-25T07:36:53.353Z,9.50
2022-11-25T07:39:23.822Z,10.27
2022-11-25T07:41:53.230Z,9.30
2022-11-25T07:44:23.322Z,9.13
2022-11-25T07:46:54.071Z,8.73
2022-11-25T07:49:26.040Z,9.90
2022-11-25T07:51:57.034Z,9.95
2022-11-25T07:54:25.800Z,9.70
2022-11-25T07:56:54.132Z,10.18
2022-11-25T07:59:27.698Z,10.63
2022-11-25T08:01:57.669Z,10.35
2022-11-25T08:04:29.281Z,9.95
2022-11-25T08:06:57.830Z,10.30
2022-11-25T08:09:26.298Z,10.93
2022-11-25T08:11:55.232Z,10.00
2022-11-25T08:14:26.134Z,9.10
2022-11-25T08:16:54.786Z,9.68
2022-11-25T08:19:27.082Z,10.05
2022-11-25T08:22:07.800Z,10.57
2022-11-25T08:24:39.523Z,9.35
2022-11-25T08:27:08.113Z,9.35
2022-11-25T08:29:38.230Z,10.85
2022-11-25T08:32:11.732Z,11.75
2022-11-25T08:34:40.585Z,9.55
2022-11-25T08:37:09.191Z,47.60
2022-11-25T08:39:52.520Z,18.27
2022-11-25T08:42:22.018Z,17.90
2022-11-25T08:44:55.621Z,11.18
2022-11-25T08:47:24.135Z,13.73
2022-11-25T08:49:53.163Z,21.25
2022-11-25T08:52:21.522Z,14.07
2022-11-25T08:54:50.055Z,16.88
2022-11-25T08:57:18.411Z,12.32
2022-11-25T08:59:46.830Z,13.23
2022-11-25T09:02:19.162Z,14.82
2022-11-25T09:04:47.435Z,11.30
2022-11-25T09:07:15.913Z,10.40
2022-11-25T09:09:44.628Z,13.02
2022-11-25T09:12:12.887Z,11.65
2022-11-25T09:14:41.607Z,10.65
2022-11-25T09:17:11.098Z,8.77
2022-11-25T09:19:41.257Z,11.35
2022-11-25T09:22:09.807Z,9.25
2022-11-25T09:24:38.154Z,7.50
2022-11-25T09:27:06.373Z,8.52
2022-11-25T09:29:34.869Z,7.43
2022-11-25T09:32:03.571Z,7.70
2022-11-25T09:34:32.018Z,7.35
2022-11-25T09:37:01.884Z,7.85
2022-11-25T09:39:31.045Z,5.30
2022-11-25T09:42:29.114Z,4.93
2022-11-25T09:45:30.216Z,6.00
2022-11-25T09:48:10.321Z,12.80
2022-11-25T09:50:49.965Z,4.88
2022-11-25T09:53:33.256Z,14.55
2022-11-25T09:56:05.170Z,3.90
2022-11-25T09:58:37.390Z,6.88
2022-11-25T10:01:08.438Z,6.53
2022-11-25T10:03:41.379Z,7.97
2022-11-25T10:06:16.163Z,3.67
2022-11-25T10:08:49.220Z,3.30
2022-11-25T10:11:29.888Z,10.27
2022-11-25T10:14:03.073Z,8.63
2022-11-25T10:16:41.145Z,7.13
2022-11-25T10:19:20.896Z,3.83
2022-11-25T10:21:49.318Z,3.45
2022-11-25T10:24:21.391Z,5.00
2022-11-25T10:26:54.681Z,5.20
2022-11-25T10:29:28.682Z,4.22
2022-11-25T10:32:06.955Z,4.43
2022-11-25T10:34:39.291Z,3.92
2022-11-25T10:37:14.123Z,3.72
2022-11-25T10:39:43.742Z,3.40
2022-11-25T10:42:19.613Z,4.00
2022-11-25T10:44:47.917Z,4.13
2022-11-25T10:47:38.385Z,3.63
2022-11-25T10:50:23.374Z,9.18
2022-11-25T10:52:58.349Z,12.18
2022-11-25T10:55:30.494Z,3.97
2022-11-25T10:57:59.765Z,4.10
2022-11-25T11:00:33.984Z,14.75
2022-11-25T11:03:15.219Z,15.10
2022-11-25T11:05:49.182Z,13.38
2022-11-25T11:08:20.886Z,5.93
2022-11-25T11:11:12.362Z,6.10
2022-11-25T11:13:40.754Z,7.88
2022-11-25T11:16:28.224Z,4.40
2022-11-25T11:18:57.314Z,4.18
2022-11-25T11:21:30.857Z,5.18
2022-11-25T11:24:00.869Z,4.00
2022-11-25T11:26:33.160Z,5.15
2022-11-25T11:29:09.845Z,4.50
2022-11-25T11:31:47.880Z,4.28
2022-11-25T11:34:34.847Z,3.45
2022-11-25T11:37:18.214Z,5.57
2022-11-25T11:40:05.120Z,4.40
2022-11-25T11:42:44.820Z,3.55
2022-11-25T11:45:30.395Z,3.17
2022-11-25T11:48:12.462Z,4.93
2022-11-25T11:50:44.865Z,5.25
2022-11-25T11:53:23.349Z,4.85
2022-11-25T11:56:33.692Z,3.75
2022-11-25T11:59:10.071Z,4.50
2022-11-25T12:01:49.985Z,3.90
2022-11-25T12:04:23.836Z,4.57
2022-11-25T12:07:04.792Z,44.50
2022-11-25T12:09:36.187Z,5.78
2022-11-25T12:12:07.462Z,10.25
2022-11-25T12:14:43.697Z,13.75
2022-11-25T12:17:18.658Z,8.95
2022-11-25T12:19:55.462Z,13.70
2022-11-25T12:22:31.243Z,9.43
2022-11-25T12:25:07.488Z,9.00
2022-11-25T12:27:44.508Z,22.00
2022-11-25T12:30:18.706Z,9.50
2022-11-25T12:33:07.754Z,13.95
2022-11-25T12:35:47.372Z,11.55
2022-11-25T12:38:23.688Z,8.23
2022-11-25T12:41:01.189Z,26.48
2022-11-25T12:43:39.802Z,13.77
2022-11-25T12:46:20.263Z,30.08
2022-11-25T12:48:48.946Z,21.73
2022-11-25T12:51:26.929Z,13.93
2022-11-25T12:54:07.051Z,18.17
2022-11-25T12:56:57.794Z,16.88
2022-11-25T12:59:51.266Z,13.13
2022-11-25T13:02:55.844Z,12.73
2022-11-25T13:05:59.935Z,9.40
2022-11-25T13:08:54.377Z,13.75
2022-11-25T13:11:49.522Z,12.55
2022-11-25T13:14:27.614Z,13.27
2022-11-25T13:17:00.498Z,9.68
2022-11-25T13:19:37.167Z,9.77
2022-11-25T13:22:13.442Z,16.05
2022-11-25T13:24:43.470Z,13.52
2022-11-25T13:27:32.065Z,12.95
2022-11-25T13:30:09.770Z,18.25
2022-11-25T13:32:43.670Z,12.07
2022-11-25T13:35:39.403Z,11.43
2022-11-25T13:38:49.426Z,14.05
2022-11-25T13:41:26.645Z,13.85
2022-11-25T13:44:02.552Z,19.95
2022-11-25T13:46:40.797Z,10.43
2022-11-25T13:49:24.151Z,13.80
2022-11-25T13:51:56.177Z,33.67
2022-11-25T13:54:31.903Z,35.25
2022-11-25T13:57:26.879Z,11.35
2022-11-25T13:59:59.066Z,14.88
2022-11-25T14:02:46.102Z,11.80
2022-11-25T14:05:49.408Z,12.18
2022-11-25T14:08:27.739Z,13.05
2022-11-25T14:11:26.670Z,25.35
2022-11-25T14:14:18.513Z,26.33
2022-11-25T14:16:59.990Z,24.50
2022-11-25T14:19:57.888Z,24.55
2022-11-25T14:22:45.083Z,40.03
2022-11-25T14:25:22.267Z,19.23
2022-11-25T14:27:58.326Z,14.55
2022-11-25T14:30:29.940Z,24.70
2022-11-25T14:33:03.055Z,16.85
2022-11-25T14:35:43.560Z,14.68
2022-11-25T14:38:17.497Z,18.98
2022-11-25T14:40:54.794Z,12.68
2022-11-25T14:43:25.895Z,14.60
2022-11-25T14:46:12.272Z,13.68
2022-11-25T14:48:40.720Z,12.80
2022-11-25T14:51:11.330Z,12.27
2022-11-25T14:53:47.484Z,12.38
2022-11-25T14:56:25.103Z,11.75
2022-11-25T14:58:56.249Z,13.70
2022-11-25T15:01:39.323Z,13.40
2022-11-25T15:04:16.931Z,13.02
2022-11-25T15:06:51.430Z,15.52
2022-11-25T15:09:24.187Z,18.38
2022-11-25T15:11:56.895Z,19.20
2022-11-25T15:14:43.363Z,17.15
2022-11-25T15:17:30.728Z,17.60
2022-11-25T15:20:25.864Z,16.13
2022-11-25T15:23:03.421Z,15.50
2022-11-25T15:25:31.899Z,18.45
2022-11-25T15:28:02.574Z,16.10
2022-11-25T15:30:51.982Z,14.35
2022-11-25T15:37:06.688Z,16.48
2022-11-25T15:39:35.678Z,16.73
2022-11-25T15:42:09.312Z,21.45
2022-11-25T15:44:46.389Z,18.50
2022-11-25T15:47:23.505Z,15.50
2022-11-25T15:50:26.863Z,17.73
2022-11-25T15:53:07.751Z,15.50
2022-11-25T15:55:39.473Z,17.02
2022-11-25T16:01:33.921Z,16.95
2022-11-25T16:04:19.025Z,16.70
2022-11-25T16:07:00.855Z,16.40
2022-11-25T16:09:31.442Z,16.30
2022-11-25T16:12:07.511Z,17.65
2022-11-25T16:14:39.634Z,17.92
2022-11-25T16:17:21.860Z,25.70
2022-11-25T16:20:03.504Z,18.70
2022-11-25T16:22:47.026Z,17.63
2022-11-25T16:25:18.907Z,22.38
2022-11-25T16:28:01.564Z,20.27
2022-11-25T16:30:38.558Z,22.17
2022-11-25T16:33:12.314Z,17.05
2022-11-25T16:35:43.156Z,16.20
2022-11-25T16:38:12.482Z,15.60
2022-11-25T16:40:41.220Z,16.25
2022-11-25T16:43:22.784Z,16.23
2022-11-25T16:45:52.963Z,16.05
2022-11-25T16:48:24.338Z,15.70
2022-11-25T16:50:53.147Z,16.67
2022-11-25T16:53:30.328Z,15.27
2022-11-25T16:56:14.144Z,14.93
2022-11-25T16:58:44.159Z,15.15
2022-11-25T17:01:16.444Z,16.15
2022-11-25T17:03:46.343Z,16.55
2022-11-25T17:06:21.581Z,15.98
2022-11-25T17:08:51.565Z,17.42
2022-11-25T17:11:28.384Z,16.95
2022-11-25T17:14:00.142Z,17.13
2022-11-25T17:16:29.830Z,19.58
2022-11-25T17:19:01.441Z,18.75
2022-11-25T17:21:29.964Z,20.27
2022-11-25T17:24:03.705Z,18.15
2022-11-25T17:26:38.428Z,17.60
2022-11-25T17:29:09.794Z,20.42
2022-11-25T17:31:40.203Z,19.85
2022-11-25T17:34:16.903Z,17.48
2022-11-25T17:36:46.288Z,17.17
2022-11-25T17:39:16.070Z,16.48
2022-11-25T17:41:50.144Z,18.27
2022-11-25T17:44:25.003Z,18.17
2022-11-25T17:46:53.620Z,17.35
2022-11-25T17:49:24.023Z,18.02
2022-11-25T17:52:17.224Z,16.15
2022-11-25T17:54:45.674Z,17.45
2022-11-25T17:57:21.201Z,19.80
2022-11-25T17:59:49.928Z,20.45
2022-11-25T18:02:20.073Z,18.75
2022-11-25T18:04:51.649Z,17.75
2022-11-25T18:07:20.540Z,36.35
2022-11-25T18:09:49.326Z,31.65
2022-11-25T18:12:20.910Z,19.30
2022-11-25T18:14:49.337Z,22.48
2022-11-25T18:17:19.399Z,18.55
2022-11-25T18:19:55.192Z,19.13
2022-11-25T18:22:25.299Z,18.70
2022-11-25T18:24:54.206Z,18.45
2022-11-25T18:27:28.237Z,17.52
2022-11-25T18:29:57.605Z,19.17
2022-11-25T18:32:26.958Z,19.35
2022-11-25T18:34:56.885Z,17.52
2022-11-25T18:37:27.961Z,17.65
2022-11-25T18:39:59.126Z,19.08
2022-11-25T18:42:28.492Z,18.60
2022-11-25T18:44:57.428Z,18.80
2022-11-25T18:47:25.707Z,18.27
2022-11-25T18:49:56.816Z,19.02
2022-11-25T18:52:29.758Z,20.60
2022-11-25T18:54:58.066Z,18.80
2022-11-25T18:57:29.062Z,18.17
2022-11-25T19:00:24.386Z,17.40
2022-11-25T19:02:45.992Z,19.25
2022-11-25T19:05:22.573Z,19.95
2022-11-25T19:07:54.277Z,18.70
2022-11-25T19:10:24.852Z,19.23
2022-11-25T19:12:59.653Z,21.75
2022-11-25T19:15:28.175Z,18.98
2022-11-25T19:17:59.073Z,19.23
2022-11-25T19:20:28.418Z,19.30
2022-11-25T19:23:03.914Z,21.20
2022-11-25T19:25:32.269Z,21.05
2022-11-25T19:28:04.339Z,19.60
2022-11-25T19:30:34.100Z,20.48
2022-11-25T19:33:04.314Z,24.20
2022-11-25T19:35:34.893Z,22.98
2022-11-25T19:38:12.299Z,22.73
2022-11-25T19:40:41.007Z,22.27
2022-11-25T19:43:12.379Z,23.67
2022-11-25T19:45:40.759Z,24.85
2022-11-25T19:48:13.250Z,22.30
2022-11-25T19:50:42.346Z,22.42
2022-11-25T19:53:17.260Z,22.95
2022-11-25T19:55:49.040Z,23.55
2022-11-25T19:58:17.796Z,22.73
2022-11-25T20:00:48.441Z,23.48
2022-11-25T20:03:24.905Z,22.55
2022-11-25T20:06:01.487Z,21.80
2022-11-25T20:08:31.505Z,21.38
2022-11-25T20:11:10.559Z,22.30
2022-11-25T20:13:38.815Z,21.80
2022-11-25T20:16:25.273Z,21.98
2022-11-25T20:18:54.730Z,20.85
2022-11-25T20:21:29.306Z,22.10
2022-11-25T20:23:59.399Z,21.60
2022-11-25T20:26:32.998Z,21.30
2022-11-25T20:29:01.376Z,22.08
2022-11-25T20:31:30.739Z,21.75
2022-11-25T20:33:59.255Z,21.15
2022-11-25T20:36:32.944Z,24.17
2022-11-25T20:39:04.507Z,26.40
2022-11-25T20:41:33.423Z,22.63
2022-11-25T20:44:05.035Z,21.40
2022-11-25T20:46:38.992Z,22.35
2022-11-25T20:49:21.033Z,19.75
2022-11-25T20:51:49.606Z,21.20
2022-11-25T20:54:19.642Z,24.92
2022-11-25T20:56:48.144Z,21.50
2022-11-25T20:59:23.099Z,21.95
2022-11-25T21:01:52.756Z,22.95
2022-11-25T21:04:21.129Z,21.60
2022-11-25T21:06:49.491Z,20.33
2022-11-25T21:09:30.228Z,22.52
2022-11-25T21:11:58.629Z,23.13
2022-11-25T21:14:27.061Z,21.05
2022-11-25T21:16:57.852Z,21.30
2022-11-25T21:19:29.215Z,21.15
2022-11-25T21:21:57.605Z,22.20
2022-11-25T21:24:34.207Z,21.58
2022-11-25T21:27:14.167Z,22.20
2022-11-25T21:29:44.366Z,21.67
2022-11-25T21:32:20.697Z,20.50
2022-11-25T21:34:49.224Z,19.40
2022-11-25T21:37:18.363Z,20.50
2022-11-25T21:39:48.369Z,21.77
2022-11-25T21:42:22.489Z,20.73
2022-11-25T21:44:52.080Z,21.52
2022-11-25T21:47:23.187Z,22.42
2022-11-25T21:49:52.094Z,20.88
2022-11-25T21:52:20.722Z,20.00
2022-11-25T21:54:50.489Z,21.08
2022-11-25T21:57:21.783Z,22.13
2022-11-25T21:59:50.717Z,19.13
2022-11-25T22:02:24.149Z,19.10
2022-11-25T22:04:53.463Z,21.27
2022-11-25T22:07:25.114Z,22.85
2022-11-25T22:09:57.478Z,22.35
2022-11-25T22:12:29.491Z,20.15
2022-11-25T22:15:00.065Z,22.00
2022-11-25T22:17:29.443Z,21.85
2022-11-25T22:19:58.285Z,22.52
2022-11-25T22:22:26.490Z,20.50
2022-11-25T22:25:01.901Z,23.20
2022-11-25T22:27:36.394Z,20.92
2022-11-25T22:30:05.775Z,23.00
2022-11-25T22:32:34.223Z,18.25
2022-11-25T22:35:02.538Z,19.70
2022-11-25T22:37:34.995Z,18.65
2022-11-25T22:40:04.858Z,19.38
2022-11-25T22:42:34.167Z,20.33
2022-11-25T22:45:05.695Z,18.50
2022-11-25T22:47:38.554Z,16.45
2022-11-25T22:50:09.109Z,17.15
2022-11-25T22:52:37.513Z,15.75
2022-11-25T22:55:18.899Z,17.55
2022-11-25T22:57:48.206Z,16.65
2022-11-25T23:00:22.878Z,15.80
2022-11-25T23:02:52.394Z,17.23
2022-11-25T23:05:29.113Z,16.02
2022-11-25T23:08:01.210Z,19.42
2022-11-25T23:10:33.638Z,18.42
2022-11-25T23:13:01.865Z,19.58
2022-11-25T23:15:31.206Z,18.10
2022-11-25T23:18:00.774Z,18.40
2022-11-25T23:20:32.171Z,17.92
2022-11-25T23:23:06.291Z,19.23
2022-11-25T23:25:35.962Z,18.25
2022-11-25T23:28:04.497Z,20.67
2022-11-25T23:30:33.103Z,20.63
2022-11-25T23:33:02.126Z,20.63
2022-11-25T23:35:36.249Z,22.35
2022-11-25T23:38:07.610Z,21.95
2022-11-25T23:40:37.285Z,18.63
2022-11-25T23:43:11.244Z,22.08
2022-11-25T23:45:46.966Z,21.13
2022-11-25T23:48:15.874Z,21.00
2022-11-25T23:50:44.464Z,19.73
2022-11-25T23:53:20.723Z,17.73
2022-11-25T23:55:51.002Z,17.67
2022-11-25T23:58:20.527Z,15.10
